createdAt,value
2023-02-05T00:01:24.945Z,-1.08
2023-02-05T00:03:51.670Z,-1.15
2023-02-05T00:06:18.869Z,-1.08
2023-02-05T00:08:45.606Z,-1.12
2023-02-05T00:11:12.525Z,-1.12
2023-02-05T00:13:40.704Z,-1.12
2023-02-05T00:16:12.520Z,-1.13
2023-02-05T00:18:39.334Z,-1.21
2023-02-05T00:21:06.782Z,-1.22
2023-02-05T00:23:34.072Z,-1.25
2023-02-05T00:26:01.012Z,-1.17
2023-02-05T00:28:27.680Z,-1.27
2023-02-05T00:30:54.404Z,-1.25
2023-02-05T00:33:22.069Z,-1.25
2023-02-05T00:35:48.865Z,-1.36
2023-02-05T00:38:15.579Z,-1.26
2023-02-05T00:40:42.254Z,-1.25
2023-02-05T00:43:09.391Z,-1.27
2023-02-05T00:45:36.511Z,-1.23
2023-02-05T00:48:04.564Z,-1.20
2023-02-05T00:50:32.451Z,-1.33
2023-02-05T00:52:59.182Z,-1.17
2023-02-05T00:55:26.154Z,-1.21
2023-02-05T00:57:52.862Z,-1.12
2023-02-05T01:00:19.825Z,-1.35
2023-02-05T01:02:46.722Z,-1.42
2023-02-05T01:05:13.525Z,-1.30
2023-02-05T01:07:41.043Z,-1.36
2023-02-05T01:10:08.208Z,-1.35
2023-02-05T01:12:34.911Z,-1.46
2023-02-05T01:15:02.688Z,-1.35
2023-02-05T01:17:29.688Z,-1.28
2023-02-05T01:19:56.349Z,-1.45
2023-02-05T01:22:23.138Z,-1.50
2023-02-05T01:24:49.839Z,-1.63
2023-02-05T01:27:16.595Z,-1.59
2023-02-05T01:29:43.350Z,-1.49
2023-02-05T01:32:10.081Z,-1.40
2023-02-05T01:34:37.060Z,-1.39
2023-02-05T01:37:03.929Z,-1.41
2023-02-05T01:39:30.673Z,-1.38
2023-02-05T01:41:57.467Z,-1.41
2023-02-05T01:44:24.953Z,-1.48
2023-02-05T01:46:53.621Z,-1.50
2023-02-05T01:49:27.488Z,-1.45
2023-02-05T01:51:55.550Z,-1.47
2023-02-05T01:54:26.083Z,-1.43
2023-02-05T01:56:56.219Z,-1.44
2023-02-05T01:59:26.621Z,-1.33
2023-02-05T02:01:53.936Z,-1.27
2023-02-05T02:04:54.637Z,-1.22
2023-02-05T02:07:24.669Z,-1.41
2023-02-05T02:09:52.927Z,-1.48
2023-02-05T02:12:29.125Z,-1.54
2023-02-05T02:15:01.287Z,-1.44
2023-02-05T02:17:28.404Z,-1.41
2023-02-05T02:20:04.730Z,-1.48
2023-02-05T02:22:56.434Z,-1.51
2023-02-05T02:26:01.446Z,-1.57
2023-02-05T02:28:51.364Z,-1.54
2023-02-05T02:31:42.442Z,-1.66
2023-02-05T02:34:17.089Z,-1.69
2023-02-05T02:36:46.793Z,-1.59
2023-02-05T02:39:21.242Z,-1.57
2023-02-05T02:41:53.970Z,-1.56
2023-02-05T02:44:25.573Z,-1.59
2023-02-05T02:46:55.534Z,-1.55
2023-02-05T02:49:26.701Z,-1.49
2023-02-05T02:51:54.541Z,-1.50
2023-02-05T02:54:22.037Z,-1.52
2023-02-05T02:56:50.178Z,-1.57
2023-02-05T02:59:19.049Z,-1.54
2023-02-05T03:01:53.665Z,-1.49
2023-02-05T03:04:31.314Z,-1.68
2023-02-05T03:07:02.411Z,-1.72
2023-02-05T03:09:37.281Z,-1.80
2023-02-05T03:12:04.229Z,-1.88
2023-02-05T03:14:31.570Z,-2.08
2023-02-05T03:16:58.263Z,-2.03
2023-02-05T03:19:25.050Z,-2.01
2023-02-05T03:22:05.030Z,-1.95
2023-02-05T03:24:32.440Z,-1.95
2023-02-05T03:26:59.229Z,-1.99
2023-02-05T03:29:28.874Z,-1.98
2023-02-05T03:32:02.238Z,-1.88
2023-02-05T03:34:57.281Z,-1.86
2023-02-05T03:37:40.592Z,-1.85
2023-02-05T03:40:30.240Z,-1.93
2023-02-05T03:43:40.116Z,-1.97
2023-02-05T03:46:29.529Z,-1.76
2023-02-05T03:49:10.166Z,-1.98
2023-02-05T03:51:53.942Z,-2.08
2023-02-05T03:54:38.978Z,-2.41
2023-02-05T03:57:20.898Z,-2.39
2023-02-05T03:59:48.618Z,-2.47
2023-02-05T04:02:15.502Z,-2.45
2023-02-05T04:04:42.205Z,-2.48
2023-02-05T04:07:09.182Z,-2.49
2023-02-05T04:09:35.903Z,-2.65
2023-02-05T04:12:02.570Z,-2.57
2023-02-05T04:14:29.286Z,-2.65
2023-02-05T04:16:56.042Z,-2.89
2023-02-05T04:19:22.742Z,-2.79
2023-02-05T04:21:49.511Z,-2.76
2023-02-05T04:24:16.246Z,-2.71
2023-02-05T04:26:43.050Z,-2.67
2023-02-05T04:29:09.744Z,-2.73
2023-02-05T04:31:37.655Z,-2.71
2023-02-05T04:34:04.370Z,-2.78
2023-02-05T04:36:31.063Z,-2.83
2023-02-05T04:38:57.753Z,-2.93
2023-02-05T04:41:24.497Z,-2.97
2023-02-05T04:43:51.247Z,-3.07
2023-02-05T04:46:17.970Z,-3.13
2023-02-05T04:48:44.724Z,-3.06
2023-02-05T04:51:13.568Z,-2.95
2023-02-05T04:53:40.598Z,-2.96
2023-02-05T04:56:10.957Z,-2.85
2023-02-05T04:58:37.884Z,-2.86
2023-02-05T05:01:05.022Z,-2.88
2023-02-05T05:03:31.963Z,-2.81
2023-02-05T05:06:03.990Z,-3.06
2023-02-05T05:08:30.649Z,-3.24
2023-02-05T05:10:57.456Z,-3.24
2023-02-05T05:13:24.166Z,-3.28
2023-02-05T05:15:55.568Z,-3.19
2023-02-05T05:18:22.522Z,-3.26
2023-02-05T05:20:49.161Z,-3.23
2023-02-05T05:23:15.831Z,-3.32
2023-02-05T05:25:47.325Z,-3.31
2023-02-05T05:28:15.765Z,-3.35
2023-02-05T05:30:43.656Z,-3.42
2023-02-05T05:33:11.177Z,-3.64
2023-02-05T05:35:38.292Z,-3.61
2023-02-05T05:38:05.506Z,-3.75
2023-02-05T05:40:51.052Z,-3.74
2023-02-05T05:43:37.877Z,-3.62
2023-02-05T05:46:05.241Z,-3.65
2023-02-05T05:48:32.239Z,-3.73
2023-02-05T05:50:59.042Z,-3.74
2023-02-05T05:53:25.718Z,-3.77
2023-02-05T05:55:52.320Z,-3.94
2023-02-05T05:58:18.916Z,-3.94
2023-02-05T06:00:45.462Z,-3.94
2023-02-05T06:03:12.096Z,-4.02
2023-02-05T06:05:39.085Z,-4.00
2023-02-05T06:08:05.816Z,-4.03
2023-02-05T06:10:33.169Z,-4.09
2023-02-05T06:13:00.567Z,-4.13
2023-02-05T06:15:27.320Z,-4.13
2023-02-05T06:17:53.956Z,-4.03
2023-02-05T06:20:20.923Z,-3.91
2023-02-05T06:22:47.602Z,-3.80
2023-02-05T06:25:15.641Z,-3.87
2023-02-05T06:27:42.366Z,-3.90
2023-02-05T06:30:09.996Z,-3.85
2023-02-05T06:32:36.657Z,-3.71
2023-02-05T06:35:03.598Z,-3.92
2023-02-05T06:37:46.050Z,-3.89
2023-02-05T06:40:15.621Z,-3.93
2023-02-05T06:42:42.619Z,-4.13
2023-02-05T06:45:10.204Z,-4.16
2023-02-05T06:47:37.283Z,-4.21
2023-02-05T06:50:05.272Z,-4.14
2023-02-05T06:52:31.892Z,-4.15
2023-02-05T06:54:58.493Z,-4.19
2023-02-05T06:57:25.100Z,-4.20
2023-02-05T06:59:51.730Z,-4.01
2023-02-05T07:02:18.332Z,-3.96
2023-02-05T07:04:44.965Z,-3.86
2023-02-05T07:07:11.700Z,-3.70
2023-02-05T07:09:38.337Z,-3.16
2023-02-05T07:12:05.363Z,-1.95
2023-02-05T07:14:32.153Z,-1.42
2023-02-05T07:16:58.879Z,-0.81
2023-02-05T07:19:25.617Z,-1.52
2023-02-05T07:21:52.208Z,-2.28
2023-02-05T07:24:19.015Z,-1.45
2023-02-05T07:26:45.712Z,-2.02
2023-02-05T07:29:12.443Z,-2.39
2023-02-05T07:31:39.350Z,-1.50
2023-02-05T07:34:06.069Z,-2.04
2023-02-05T07:36:32.767Z,-2.56
2023-02-05T07:39:06.297Z,-2.81
2023-02-05T07:41:35.348Z,-2.48
2023-02-05T07:44:02.136Z,-2.35
2023-02-05T07:46:30.217Z,-1.92
2023-02-05T07:48:57.008Z,-1.56
2023-02-05T07:51:24.860Z,-0.69
2023-02-05T07:53:52.615Z,-0.26
2023-02-05T07:56:22.486Z,0.27
2023-02-05T07:58:49.312Z,0.39
2023-02-05T08:01:16.117Z,0.71
2023-02-05T08:03:43.537Z,0.87
2023-02-05T08:06:14.156Z,1.53
2023-02-05T08:08:40.833Z,1.72
2023-02-05T08:11:07.563Z,1.55
2023-02-05T08:13:34.398Z,1.53
2023-02-05T08:16:05.532Z,1.78
2023-02-05T08:18:32.301Z,1.93
2023-02-05T08:20:59.250Z,2.39
2023-02-05T08:23:25.837Z,2.33
2023-02-05T08:25:56.536Z,2.60
2023-02-05T08:28:24.944Z,3.10
2023-02-05T08:30:51.612Z,3.40
2023-02-05T08:33:18.743Z,3.66
2023-02-05T08:35:45.721Z,3.75
2023-02-05T08:38:12.376Z,4.38
2023-02-05T08:40:39.069Z,4.67
2023-02-05T08:43:05.868Z,4.93
2023-02-05T08:45:32.919Z,4.83
2023-02-05T08:47:59.759Z,4.65
2023-02-05T08:50:26.490Z,5.01
2023-02-05T08:52:53.212Z,4.90
2023-02-05T08:55:19.914Z,4.82
2023-02-05T08:57:46.700Z,5.29
2023-02-05T09:00:15.247Z,4.94
2023-02-05T09:02:43.648Z,4.57
2023-02-05T09:05:10.477Z,4.25
2023-02-05T09:07:41.482Z,4.42
2023-02-05T09:10:10.002Z,4.06
2023-02-05T09:12:36.828Z,4.90
2023-02-05T09:15:04.086Z,6.00
2023-02-05T09:17:30.925Z,6.46
2023-02-05T09:19:57.704Z,6.84
2023-02-05T09:22:24.491Z,7.50
2023-02-05T09:24:51.154Z,7.29
2023-02-05T09:27:17.900Z,7.85
2023-02-05T09:29:44.815Z,7.70
2023-02-05T09:32:11.564Z,7.30
2023-02-05T09:34:38.335Z,6.55
2023-02-05T09:37:05.062Z,6.49
2023-02-05T09:40:13.079Z,6.22
2023-02-05T09:42:41.999Z,7.04
2023-02-05T09:45:20.833Z,6.25
2023-02-05T09:48:00.508Z,5.76
2023-02-05T09:50:30.224Z,6.68
2023-02-05T09:53:03.160Z,7.20
2023-02-05T09:55:33.177Z,7.00
2023-02-05T09:58:08.570Z,7.00
2023-02-05T10:01:03.405Z,5.82
2023-02-05T10:03:45.345Z,6.34
2023-02-05T10:06:49.844Z,6.28
2023-02-05T10:09:35.115Z,6.70
2023-02-05T10:12:23.464Z,6.79
2023-02-05T10:15:02.171Z,6.69
2023-02-05T10:17:43.090Z,6.82
2023-02-05T10:20:43.111Z,8.04
2023-02-05T10:23:45.332Z,8.77
2023-02-05T10:26:15.575Z,8.17
2023-02-05T10:29:04.769Z,7.85
2023-02-05T10:31:50.274Z,8.06
2023-02-05T10:34:35.210Z,6.63
2023-02-05T10:37:04.130Z,6.54
2023-02-05T10:39:31.311Z,6.13
2023-02-05T10:42:34.673Z,6.58
2023-02-05T10:45:21.127Z,6.79
2023-02-05T10:48:31.926Z,7.59
2023-02-05T10:51:02.978Z,7.50
2023-02-05T10:53:30.911Z,7.82
2023-02-05T10:55:59.535Z,7.50
2023-02-05T10:58:31.411Z,6.90
2023-02-05T11:00:58.502Z,7.06
2023-02-05T11:03:25.385Z,7.42
2023-02-05T11:05:52.262Z,7.36
2023-02-05T11:08:40.623Z,6.75
2023-02-05T11:11:08.405Z,7.61
2023-02-05T11:13:40.361Z,7.03
2023-02-05T11:16:09.146Z,6.47
2023-02-05T11:18:40.764Z,7.59
2023-02-05T11:21:08.936Z,7.39
2023-02-05T11:23:40.169Z,7.77
2023-02-05T11:26:20.427Z,8.19
2023-02-05T11:28:47.570Z,7.26
2023-02-05T11:31:26.280Z,6.19
2023-02-05T11:34:11.516Z,7.35
2023-02-05T11:36:40.583Z,7.52
2023-02-05T11:39:07.745Z,7.60
2023-02-05T11:41:48.317Z,7.12
2023-02-05T11:44:24.380Z,7.63
2023-02-05T11:46:56.925Z,7.92
2023-02-05T11:49:32.359Z,6.80
2023-02-05T11:51:59.570Z,6.76
2023-02-05T11:54:32.443Z,6.74
2023-02-05T11:57:05.384Z,5.63
2023-02-05T11:59:32.759Z,5.76
2023-02-05T12:02:28.815Z,4.88
2023-02-05T12:04:58.717Z,5.37
2023-02-05T12:07:26.776Z,6.00
2023-02-05T12:09:59.184Z,6.28
2023-02-05T12:12:57.954Z,6.43
2023-02-05T12:15:45.872Z,6.05
2023-02-05T12:18:21.706Z,5.96
2023-02-05T12:21:09.741Z,6.13
2023-02-05T12:24:16.215Z,6.38
2023-02-05T12:26:45.043Z,6.72
2023-02-05T12:29:36.117Z,7.12
2023-02-05T12:32:15.062Z,6.48
2023-02-05T12:35:23.714Z,6.94
2023-02-05T12:38:09.898Z,6.83
2023-02-05T12:40:52.054Z,6.18
2023-02-05T12:43:37.451Z,6.73
2023-02-05T12:46:15.148Z,6.98
2023-02-05T12:49:00.566Z,6.96
2023-02-05T12:51:27.312Z,7.44
2023-02-05T12:53:59.905Z,7.56
2023-02-05T12:56:35.620Z,7.12
2023-02-05T12:59:27.327Z,7.86
2023-02-05T13:02:22.837Z,6.65
2023-02-05T13:05:05.697Z,7.09
2023-02-05T13:07:38.780Z,6.93
2023-02-05T13:10:19.681Z,6.06
2023-02-05T13:12:50.684Z,6.01
2023-02-05T13:15:30.751Z,5.95
2023-02-05T13:18:00.356Z,5.75
2023-02-05T13:20:48.623Z,5.65
2023-02-05T13:23:34.079Z,4.81
2023-02-05T13:26:08.835Z,4.99
2023-02-05T13:28:48.142Z,5.52
2023-02-05T13:31:26.073Z,5.53
2023-02-05T13:33:55.356Z,5.41
2023-02-05T13:36:25.239Z,5.48
2023-02-05T13:39:05.942Z,5.14
2023-02-05T13:41:57.729Z,5.46
2023-02-05T13:44:39.016Z,4.75
2023-02-05T13:47:11.430Z,4.80
2023-02-05T13:50:12.220Z,4.82
2023-02-05T13:52:53.772Z,4.65
2023-02-05T13:55:44.923Z,5.29
2023-02-05T13:58:15.393Z,5.33
2023-02-05T14:00:44.078Z,5.45
2023-02-05T14:03:27.620Z,4.72
2023-02-05T14:05:54.407Z,4.78
2023-02-05T14:08:26.627Z,5.52
2023-02-05T14:11:02.405Z,6.05
2023-02-05T14:13:32.750Z,6.20
2023-02-05T14:16:25.189Z,4.97
2023-02-05T14:19:00.949Z,4.60
2023-02-05T14:21:30.921Z,4.24
2023-02-05T14:24:00.370Z,3.65
2023-02-05T14:26:45.055Z,3.12
2023-02-05T14:29:43.966Z,2.89
2023-02-05T14:32:31.546Z,2.48
2023-02-05T14:35:24.591Z,2.44
2023-02-05T14:37:51.704Z,2.40
2023-02-05T14:40:27.526Z,2.42
2023-02-05T14:43:09.816Z,2.47
2023-02-05T14:45:43.842Z,2.32
2023-02-05T14:48:20.433Z,2.48
2023-02-05T14:50:47.163Z,2.65
2023-02-05T14:53:25.609Z,1.96
2023-02-05T14:55:56.672Z,1.95
2023-02-05T14:58:33.933Z,1.73
2023-02-05T15:01:45.985Z,1.60
2023-02-05T15:04:30.706Z,1.67
2023-02-05T15:07:00.048Z,1.52
2023-02-05T15:09:51.072Z,1.57
2023-02-05T15:12:47.308Z,1.49
2023-02-05T15:15:29.039Z,1.77
2023-02-05T15:18:00.440Z,1.81
2023-02-05T15:20:32.512Z,1.58
2023-02-05T15:23:13.520Z,1.18
2023-02-05T15:25:46.800Z,1.12
2023-02-05T15:28:32.888Z,1.15
2023-02-05T15:31:11.862Z,0.93
2023-02-05T15:33:47.640Z,1.36
2023-02-05T15:36:26.351Z,1.20
2023-02-05T15:39:02.841Z,1.27
2023-02-05T15:41:31.049Z,1.28
2023-02-05T15:43:59.982Z,1.41
2023-02-05T15:46:27.323Z,1.28
2023-02-05T15:48:55.188Z,1.13
2023-02-05T15:51:29.040Z,0.76
2023-02-05T15:53:58.090Z,0.43
2023-02-05T15:56:24.865Z,0.39
2023-02-05T15:58:54.132Z,0.32
2023-02-05T16:01:29.666Z,0.19
2023-02-05T16:03:56.526Z,0.05
2023-02-05T16:06:25.560Z,0.04
2023-02-05T16:08:52.722Z,0.16
2023-02-05T16:11:33.848Z,0.08
2023-02-05T16:14:10.726Z,-0.02
2023-02-05T16:16:38.393Z,-0.18
2023-02-05T16:19:11.602Z,-0.15
2023-02-05T16:21:49.600Z,-0.21
2023-02-05T16:24:31.865Z,-0.11
2023-02-05T16:27:11.038Z,-0.01
2023-02-05T16:29:48.073Z,-0.04
2023-02-05T16:32:22.025Z,-0.04
2023-02-05T16:34:49.004Z,-0.13
2023-02-05T16:37:17.097Z,-0.19
2023-02-05T16:39:55.163Z,-0.18
2023-02-05T16:42:39.075Z,-0.28
2023-02-05T16:45:15.199Z,-0.53
2023-02-05T16:47:41.864Z,-0.45
2023-02-05T16:50:33.401Z,-0.70
2023-02-05T16:53:00.285Z,-0.59
2023-02-05T16:55:26.937Z,-0.59
2023-02-05T16:57:54.829Z,-0.55
2023-02-05T17:00:29.566Z,-0.64
2023-02-05T17:02:58.713Z,-0.72
2023-02-05T17:05:31.880Z,-0.70
2023-02-05T17:08:01.392Z,-0.72
2023-02-05T17:10:29.047Z,-0.70
2023-02-05T17:13:05.286Z,-0.63
2023-02-05T17:15:42.150Z,-0.69
2023-02-05T17:18:18.933Z,-0.68
2023-02-05T17:20:46.214Z,-0.70
2023-02-05T17:23:14.921Z,-0.58
2023-02-05T17:25:51.799Z,-0.70
2023-02-05T17:28:22.835Z,-0.83
2023-02-05T17:30:50.109Z,-0.93
2023-02-05T17:33:21.555Z,-1.09
2023-02-05T17:35:48.689Z,-1.25
2023-02-05T17:38:16.230Z,-1.12
2023-02-05T17:40:46.029Z,-1.09
2023-02-05T17:43:14.479Z,-1.11
2023-02-05T17:45:44.286Z,-1.38
2023-02-05T17:48:11.721Z,-1.43
2023-02-05T17:50:38.799Z,-1.47
2023-02-05T17:53:05.642Z,-1.47
2023-02-05T17:55:32.496Z,-1.41
2023-02-05T17:57:59.355Z,-1.49
2023-02-05T18:00:27.979Z,-1.61
2023-02-05T18:02:54.962Z,-1.53
2023-02-05T18:05:22.776Z,-1.29
2023-02-05T18:07:55.286Z,-1.40
2023-02-05T18:10:25.159Z,-1.36
2023-02-05T18:12:53.372Z,-1.41
2023-02-05T18:15:20.277Z,-1.41
2023-02-05T18:17:47.088Z,-1.44
2023-02-05T18:20:15.316Z,-1.59
2023-02-05T18:22:42.241Z,-1.83
2023-02-05T18:25:09.989Z,-1.88
2023-02-05T18:27:36.814Z,-1.96
2023-02-05T18:30:04.462Z,-2.03
2023-02-05T18:32:31.304Z,-2.11
2023-02-05T18:34:57.987Z,-1.98
2023-02-05T18:37:26.508Z,-2.01
2023-02-05T18:39:53.372Z,-2.03
2023-02-05T18:42:20.191Z,-2.13
2023-02-05T18:44:47.079Z,-2.14
2023-02-05T18:47:14.149Z,-2.15
2023-02-05T18:49:41.627Z,-2.26
2023-02-05T18:52:09.470Z,-2.31
2023-02-05T18:54:36.273Z,-2.41
2023-02-05T18:57:03.111Z,-2.37
2023-02-05T18:59:29.756Z,-2.32
2023-02-05T19:01:57.136Z,-2.33
2023-02-05T19:04:25.879Z,-2.35
2023-02-05T19:06:53.764Z,-2.50
2023-02-05T19:09:22.190Z,-2.70
2023-02-05T19:11:49.762Z,-2.56
2023-02-05T19:14:18.545Z,-2.36
2023-02-05T19:16:45.664Z,-2.23
2023-02-05T19:19:13.828Z,-2.37
2023-02-05T19:21:40.805Z,-2.56
2023-02-05T19:24:09.932Z,-2.62
2023-02-05T19:26:38.447Z,-2.59
2023-02-05T19:29:08.141Z,-2.86
2023-02-05T19:31:36.948Z,-2.96
2023-02-05T19:34:04.103Z,-2.74
2023-02-05T19:36:31.376Z,-2.70
2023-02-05T19:39:00.436Z,-2.67
2023-02-05T19:41:27.931Z,-2.70
2023-02-05T19:43:57.210Z,-2.73
2023-02-05T19:46:26.876Z,-2.87
2023-02-05T19:48:54.856Z,-2.99
2023-02-05T19:51:21.992Z,-3.03
2023-02-05T19:53:48.958Z,-3.05
2023-02-05T19:56:18.625Z,-2.96
2023-02-05T19:58:47.151Z,-3.03
2023-02-05T20:01:25.691Z,-3.42
2023-02-05T20:03:54.168Z,-3.25
2023-02-05T20:06:22.344Z,-3.24
2023-02-05T20:08:49.496Z,-3.20
2023-02-05T20:11:16.773Z,-3.13
2023-02-05T20:13:43.723Z,-3.15
2023-02-05T20:16:28.244Z,-3.21
2023-02-05T20:18:56.639Z,-3.30
2023-02-05T20:21:23.447Z,-3.07
2023-02-05T20:23:50.852Z,-3.04
2023-02-05T20:26:22.355Z,-3.13
2023-02-05T20:29:12.820Z,-3.03
2023-02-05T20:31:43.007Z,-3.05
2023-02-05T20:34:22.303Z,-3.01
2023-02-05T20:36:54.242Z,-2.91
2023-02-05T20:39:22.534Z,-2.99
2023-02-05T20:41:50.944Z,-3.11
2023-02-05T20:44:18.251Z,-3.17
2023-02-05T20:46:45.073Z,-3.04
2023-02-05T20:49:12.401Z,-3.06
2023-02-05T20:51:39.606Z,-3.07
2023-02-05T20:54:06.600Z,-3.15
2023-02-05T20:56:33.497Z,-3.12
2023-02-05T20:59:01.644Z,-3.09
2023-02-05T21:01:30.420Z,-3.13
2023-02-05T21:04:00.151Z,-3.29
2023-02-05T21:06:28.960Z,-3.42
2023-02-05T21:08:56.099Z,-3.43
2023-02-05T21:11:24.053Z,-3.46
2023-02-05T21:13:51.103Z,-3.48
2023-02-05T21:16:19.779Z,-3.68
2023-02-05T21:18:47.730Z,-3.59
2023-02-05T21:21:14.379Z,-3.45
2023-02-05T21:23:41.508Z,-3.42
2023-02-05T21:26:08.538Z,-3.32
2023-02-05T21:28:35.225Z,-3.26
2023-02-05T21:31:07.104Z,-3.42
2023-02-05T21:33:34.057Z,-3.43
2023-02-05T21:36:05.370Z,-3.43
2023-02-05T21:38:35.162Z,-3.40
2023-02-05T21:41:12.723Z,-3.48
2023-02-05T21:43:39.666Z,-3.54
2023-02-05T21:46:09.593Z,-3.63
2023-02-05T21:48:36.397Z,-3.79
2023-02-05T21:51:12.625Z,-3.96
2023-02-05T21:53:39.970Z,-4.09
2023-02-05T21:56:08.867Z,-4.14
2023-02-05T21:58:37.152Z,-4.35
2023-02-05T22:01:09.579Z,-4.38
2023-02-05T22:03:36.284Z,-4.25
2023-02-05T22:06:06.812Z,-4.17
2023-02-05T22:08:37.454Z,-4.23
2023-02-05T22:11:06.656Z,-4.01
2023-02-05T22:13:35.219Z,-4.03
2023-02-05T22:16:05.890Z,-4.14
2023-02-05T22:18:33.597Z,-4.11
2023-02-05T22:21:12.152Z,-4.05
2023-02-05T22:23:42.251Z,-4.04
2023-02-05T22:26:09.248Z,-4.12
2023-02-05T22:28:36.825Z,-3.94
2023-02-05T22:31:05.694Z,-4.05
2023-02-05T22:33:33.260Z,-3.94
2023-02-05T22:36:00.133Z,-3.95
2023-02-05T22:38:27.600Z,-4.03
2023-02-05T22:40:54.216Z,-4.04
2023-02-05T22:43:20.862Z,-4.03
2023-02-05T22:45:47.615Z,-4.01
2023-02-05T22:48:14.336Z,-3.96
2023-02-05T22:50:42.009Z,-4.05
2023-02-05T22:53:09.175Z,-4.23
2023-02-05T22:55:36.574Z,-4.29
2023-02-05T22:58:03.633Z,-4.32
2023-02-05T23:00:31.079Z,-4.37
2023-02-05T23:02:58.347Z,-4.31
2023-02-05T23:05:25.871Z,-4.32
2023-02-05T23:07:52.920Z,-4.17
2023-02-05T23:10:21.068Z,-4.12
2023-02-05T23:12:48.046Z,-4.22
2023-02-05T23:15:14.976Z,-4.31
2023-02-05T23:17:41.697Z,-4.44
2023-02-05T23:20:09.918Z,-4.69
2023-02-05T23:22:36.540Z,-4.89
2023-02-05T23:25:05.513Z,-5.04
2023-02-05T23:27:32.749Z,-4.92
2023-02-05T23:29:59.637Z,-4.97
2023-02-05T23:32:26.384Z,-4.99
2023-02-05T23:34:53.003Z,-5.05
2023-02-05T23:37:19.569Z,-5.11
2023-02-05T23:39:46.200Z,-5.13
2023-02-05T23:42:12.819Z,-5.06
2023-02-05T23:44:39.377Z,-5.06
2023-02-05T23:47:06.070Z,-5.01
2023-02-05T23:49:32.687Z,-4.99
2023-02-05T23:51:59.351Z,-4.94
2023-02-05T23:54:26.016Z,-4.96
2023-02-05T23:56:52.862Z,-4.95
2023-02-05T23:59:19.468Z,-5.00
